Impacts METAR Board
IDs:

KIAH - Houston/Bush Intl, TX, US

Updated at: 2000 UTC 25 Apr 2018
Potential Impact None Slight Moderate High
Time 25/08Z 25/09Z 25/10Z 25/11Z 25/12Z 25/13Z 25/14Z 25/15Z 25/16Z 25/17Z 25/18Z 25/19Z 25/20Z
Temp65 62 63 62 61 66 71 76 78 81 83 84 85
Dewpt61 61 61 61 60 64 65 64 63 63 62 63 62
Altim30.04 30.05 30.05 30.04 30.04 30.07 30.08 30.08 30.07 30.06 30.03 30.00 29.97
VIS10 10 10 10 10 10 10 10 10 10 10 10 10
CIG-- -- -- -- -- -- -- -- -- -- -- 48 55
CoverFEWFEWFEWSCTFEWFEWCLRCLRFEWFEWSCTBKNBKN
FltCatVFRVFRVFRVFRVFRVFRVFRVFRVFRVFRVFRVFRVFR
WX--------------------------
WDir24000000026001500220280
WSpd3 0 0 0 0 0 0 5 3 3 4 5 8
WGst-- -- -- -- -- -- -- -- -- -- -- -- --
Raw hourly METARs
KIAH 250753Z 24003KT 10SM FEW250 18/16 A3004 RMK AO2 SLP173 T01830161
KIAH 250853Z 00000KT 10SM FEW250 17/16 A3005 RMK AO2 SLP174 T01670161 56008
KIAH 250953Z 00000KT 10SM FEW250 17/16 A3005 RMK AO2 SLP176 T01720161
KIAH 251053Z 00000KT 10SM SCT250 17/16 A3004 RMK AO2 SLP172 T01670161
KIAH 251153Z 00000KT 10SM FEW250 16/16 A3004 RMK AO2 SLP171 T01610156 10206 20156 58003
KIAH 251253Z 00000KT 10SM FEW250 19/18 A3007 RMK AO2 SLP183 T01890178
KIAH 251353Z 00000KT 10SM CLR 22/18 A3008 RMK AO2 SLP186 T02170183
KIAH 251453Z 26005KT 10SM CLR 24/18 A3008 RMK AO2 SLP185 T02440178 50014
KIAH 251553Z VRB03KT 10SM FEW030 26/17 A3007 RMK AO2 SLP182 T02560172
KIAH 251653Z 15003KT 10SM FEW040 27/17 A3006 RMK AO2 SLP177 T02720172
KIAH 251753Z VRB04KT 10SM SCT045 28/17 A3003 RMK AO2 SLP169 T02830167 10283 20156 58016
KIAH 251853Z 22005KT 10SM BKN048 29/17 A3000 RMK AO2 SLP160 T02890172
KIAH 251953Z 28008KT 10SM BKN055 BKN250 29/17 A2997 RMK AO2 SLP149 T02940167



Page loaded:  20:21 UTC  |   01:21 PM Pacific  |   02:21 PM Mountain  |   03:21 PM Central  |   04:21 PM Eastern

 

ADVISORIES

FORECASTS

FORECASTS

OBSERVATIONS

USER TOOLS

ABOUT US